Time;durP1;ratioP1;P1;durP2;ratioP2;P2;SDS_P1;SDS_P2;PMS_P1;PMS_P2;Temp;Humidity;BMP_temperature;BMP_pressure;BME280_temperature;BME280_humidity;BME280_pressure;Samples;Min_cycle;Max_cycle;Signal;HPM_P1;HPM_P2
2022/08/22 00:00:43;;;;;;;23.73;22.23;;;;;;;-141.02;100.00;85634.84;5069811;28;20240;-72
2022/08/22 00:03:23;;;;;;;23.40;22.00;;;;;;;-141.02;100.00;85644.56;5070256;28;20218;-72
2022/08/22 00:06:06;;;;;;;22.45;21.05;;;;;;;-141.02;100.00;85629.03;5073591;28;20221;-72
2022/08/22 00:08:43;;;;;;;20.83;19.52;;;;;;;-141.02;100.00;85712.59;5133320;27;20185;-71
2022/08/22 00:11:24;;;;;;;21.50;20.20;;;;;;;-141.02;100.00;85685.41;5133269;28;20192;-72
2022/08/22 00:14:00;;;;;;;21.50;20.20;;;;;;;-141.02;100.00;85755.38;5132935;27;20189;-72
2022/08/22 00:16:35;;;;;;;20.42;19.23;;;;;;;-141.02;100.00;85788.44;5132850;28;20206;-73
2022/08/22 00:19:16;;;;;;;20.48;19.20;;;;;;;-141.02;100.00;85802.03;5133406;28;20189;-72
2022/08/22 00:21:52;;;;;;;19.70;18.60;;;;;;;-141.02;100.00;85860.38;5132945;28;20315;-72
2022/08/22 00:24:27;;;;;;;19.88;18.80;;;;;;;-141.02;100.00;85879.81;5133854;28;20242;-73
2022/08/22 00:27:03;;;;;;;16.83;15.93;;;;;;;-141.02;100.00;85864.25;5132990;28;20183;-71
2022/08/22 00:29:37;;;;;;;18.35;17.35;;;;;;;-141.02;100.00;85891.47;5133244;28;20192;-74
2022/08/22 00:32:12;;;;;;;19.15;18.15;;;;;;;-141.02;100.00;85914.78;5133182;28;20184;-72
2022/08/22 00:34:53;;;;;;;18.92;18.02;;;;;;;-141.02;100.00;85982.84;5132577;28;20241;-72
2022/08/22 00:37:26;;;;;;;18.40;17.50;;;;;;;-141.02;100.00;85957.56;5135194;27;20238;-72
2022/08/22 00:40:00;;;;;;;18.70;17.80;;;;;;;-141.02;100.00;85953.69;5137234;27;20264;-72
2022/08/22 00:42:47;;;;;;;18.63;17.73;;;;;;;-141.02;100.00;85977.00;5136282;27;20323;-71
2022/08/22 00:45:53;;;;;;;18.40;17.50;;;;;;;-141.02;100.00;85945.91;5135923;27;20224;-72
2022/08/22 00:48:55;;;;;;;18.30;17.40;;;;;;;-141.02;100.00;85955.63;5094992;27;20247;-72
2022/08/22 00:51:47;;;;;;;18.95;18.05;;;;;;;-141.02;100.00;85949.78;5122683;27;20700;-72
2022/08/22 00:54:20;;;;;;;19.48;18.48;;;;;;;-141.02;100.00;85895.34;5126093;27;20705;-72
2022/08/22 00:57:17;;;;;;;19.20;18.20;;;;;;;-141.02;100.00;85879.81;5136161;27;20192;-73
2022/08/22 01:00:10;;;;;;;20.17;19.17;;;;;;;-141.02;100.00;85864.25;5136502;27;20216;-72
2022/08/22 01:02:51;;;;;;;20.10;19.10;;;;;;;-141.02;100.00;85837.03;5136459;27;20277;-72
2022/08/22 01:05:43;;;;;;;20.67;19.58;;;;;;;-141.02;100.00;85800.09;5135975;27;20689;-73
2022/08/22 01:08:29;;;;;;;20.45;19.35;;;;;;;-141.02;100.00;85776.75;5135587;27;20220;-73
2022/08/22 01:11:11;;;;;;;17.08;16.17;;;;;;;-141.02;100.00;85782.59;5135678;27;20184;-72
2022/08/22 01:13:54;;;;;;;17.40;16.50;;;;;;;-141.02;100.00;85778.72;5135750;27;20212;-73
2022/08/22 01:16:40;;;;;;;21.52;20.33;;;;;;;-141.02;100.00;85776.75;5135645;27;20276;-73
2022/08/22 01:19:44;;;;;;;20.73;19.52;;;;;;;-141.02;100.00;85749.53;5135684;27;20249;-72
2022/08/22 01:22:53;;;;;;;21.95;20.75;;;;;;;-141.02;100.00;85730.09;5109423;27;20232;-72
2022/08/22 01:26:09;;;;;;;20.25;19.05;;;;;;;-141.02;100.00;85619.28;5135572;27;20235;-72
2022/08/22 01:29:19;;;;;;;20.65;19.45;;;;;;;-141.02;100.00;85712.59;5053255;28;20245;-72
2022/08/22 01:32:39;;;;;;;20.70;19.50;;;;;;;-141.02;100.00;85700.94;5113567;27;20250;-72
2022/08/22 01:35:39;;;;;;;20.80;19.60;;;;;;;-141.02;100.00;85689.28;5102347;27;20666;-73
2022/08/22 01:38:35;;;;;;;19.75;18.65;;;;;;;-141.02;100.00;85724.28;5135455;27;20245;-73
2022/08/22 01:41:54;;;;;;;19.67;18.58;;;;;;;-141.02;100.00;85765.09;5135266;27;20188;-72
2022/08/22 01:44:37;;;;;;;18.80;17.80;;;;;;;-141.02;100.00;85821.47;5135452;27;20231;-72
2022/08/22 01:47:12;;;;;;;19.20;18.20;;;;;;;-141.02;100.00;85905.06;5134878;27;20273;-72
2022/08/22 01:49:44;;;;;;;19.13;18.13;;;;;;;-141.02;100.00;85977.00;5135585;27;20191;-72
2022/08/22 01:52:15;;;;;;;18.13;17.23;;;;;;;-141.02;100.00;86054.78;5135227;27;20185;-73
2022/08/22 01:54:52;;;;;;;18.45;17.55;;;;;;;-141.02;100.00;86136.44;5135418;27;20224;-73
2022/08/22 01:57:20;;;;;;;18.35;17.45;;;;;;;-141.02;100.00;86140.34;5135028;27;20184;-72
2022/08/22 01:59:51;;;;;;;19.30;18.30;;;;;;;-141.02;100.00;86066.44;5134705;27;20284;-73
2022/08/22 02:02:45;;;;;;;16.25;15.45;;;;;;;-141.02;100.00;86017.84;5134857;27;20238;-72
2022/08/22 02:05:23;;;;;;;19.60;18.60;;;;;;;-141.02;100.00;85879.81;5134898;27;20261;-72
2022/08/22 02:07:59;;;;;;;19.88;18.88;;;;;;;-141.02;100.00;85840.91;5134804;27;20569;-73
2022/08/22 02:10:45;;;;;;;20.35;19.25;;;;;;;-141.02;100.00;85798.16;5134624;27;20219;-72
2022/08/22 02:13:31;;;;;;;19.40;18.40;;;;;;;-141.02;100.00;85732.06;5134173;27;20280;-73
2022/08/22 02:16:09;;;;;;;19.25;18.25;;;;;;;-141.02;100.00;85770.94;5134513;27;20192;-73
2022/08/22 02:18:50;;;;;;;19.20;18.20;;;;;;;-141.02;100.00;85763.16;5134569;27;20189;-72
2022/08/22 02:21:26;;;;;;;17.73;16.83;;;;;;;-141.02;100.00;85718.44;5134047;27;20606;-73
2022/08/22 02:23:59;;;;;;;17.45;16.65;;;;;;;-141.02;100.00;85767.03;5134031;27;20222;-72
2022/08/22 02:26:44;;;;;;;17.00;16.20;;;;;;;-141.02;100.00;85761.22;5134027;27;20284;-73
2022/08/22 02:29:17;;;;;;;16.40;15.70;;;;;;;-141.02;100.00;85751.50;5134204;27;20271;-73
2022/08/22 02:31:55;;;;;;;17.25;16.45;;;;;;;-141.02;100.00;85743.72;5134539;27;20249;-73
2022/08/22 02:34:36;;;;;;;16.08;15.38;;;;;;;-141.02;100.00;85739.84;5134702;27;20590;-74
2022/08/22 02:37:10;;;;;;;16.30;15.60;;;;;;;-141.02;100.00;85714.56;5133672;27;20184;-73
2022/08/22 02:39:42;;;;;;;16.00;15.30;;;;;;;-141.02;100.00;85759.28;5134116;27;20188;-74
2022/08/22 02:42:21;;;;;;;14.68;14.07;;;;;;;-141.02;100.00;85695.13;5133966;27;20303;-74
2022/08/22 02:44:58;;;;;;;13.32;12.82;;;;;;;-141.02;100.00;85796.22;5133964;27;20203;-74
2022/08/22 02:47:31;;;;;;;15.48;14.88;;;;;;;-141.02;100.00;85700.94;5134073;27;20184;-73
2022/08/22 02:50:06;;;;;;;14.27;13.77;;;;;;;-141.02;100.00;85805.94;5133970;27;20287;-74
2022/08/22 02:52:44;;;;;;;14.00;13.50;;;;;;;-141.02;100.00;85780.66;5134020;27;20284;-78
2022/08/22 02:55:16;;;;;;;14.20;13.70;;;;;;;-141.02;100.00;85774.81;5133717;27;20195;-74
2022/08/22 02:57:51;;;;;;;14.10;13.60;;;;;;;-141.02;100.00;85825.38;5133424;27;20275;-73
2022/08/22 03:00:26;;;;;;;13.20;12.70;;;;;;;-141.02;100.00;85770.94;5133300;27;20198;-73
2022/08/22 03:03:05;;;;;;;13.63;13.13;;;;;;;-141.02;100.00;85759.28;5133421;27;20216;-73
2022/08/22 03:05:47;;;;;;;13.20;12.80;;;;;;;-141.02;100.00;85739.84;5133589;27;20188;-73
2022/08/22 03:08:22;;;;;;;12.80;12.40;;;;;;;-141.02;100.00;85759.28;5133256;27;20184;-73
2022/08/22 03:11:06;;;;;;;12.50;12.10;;;;;;;-141.02;100.00;85770.94;5134025;27;20180;-72
2022/08/22 03:13:52;;;;;;;11.82;11.43;;;;;;;-141.02;100.00;85751.50;5133782;27;20208;-73
2022/08/22 03:16:28;;;;;;;12.27;11.88;;;;;;;-141.02;100.00;85782.59;5133715;27;20188;-72
2022/08/22 03:19:01;;;;;;;12.23;11.82;;;;;;;-141.02;100.00;85780.66;5133714;27;20248;-73
2022/08/22 03:21:36;;;;;;;12.10;11.70;;;;;;;-141.02;100.00;85778.72;5133425;27;20222;-73
2022/08/22 03:24:11;;;;;;;12.38;11.98;;;;;;;-141.02;100.00;85761.22;5133222;27;20314;-73
2022/08/22 03:26:50;;;;;;;12.60;12.20;;;;;;;-141.02;100.00;85749.53;5133566;28;20677;-73
2022/08/22 03:29:24;;;;;;;11.82;11.43;;;;;;;-141.02;100.00;85747.59;5133508;28;20632;-73
2022/08/22 03:32:10;;;;;;;12.38;11.98;;;;;;;-141.02;100.00;85774.81;5133125;28;20281;-73
2022/08/22 03:34:38;;;;;;;12.52;12.13;;;;;;;-141.02;100.00;85724.28;5133544;28;20188;-74
2022/08/22 03:37:13;;;;;;;12.52;12.13;;;;;;;-141.02;100.00;85735.94;5132896;28;20231;-73
2022/08/22 03:39:54;;;;;;;12.20;11.80;;;;;;;-141.02;100.00;85716.50;5133596;28;20238;-73
2022/08/22 03:42:58;;;;;;;11.75;11.35;;;;;;;-141.02;100.00;85726.22;5133460;27;20251;-73
2022/08/22 03:46:13;;;;;;;12.88;12.38;;;;;;;-141.02;100.00;85685.41;5132928;28;20627;-73
2022/08/22 03:49:21;;;;;;;11.50;11.10;;;;;;;-141.02;100.00;85629.03;5047362;28;20224;-73
2022/08/22 03:52:06;;;;;;;11.10;10.70;;;;;;;-141.02;100.00;85693.16;5133467;27;20719;-73
2022/08/22 03:55:02;;;;;;;10.23;9.93;;;;;;;-141.02;100.00;85656.22;5132977;28;20284;-73
2022/08/22 03:58:03;;;;;;;10.20;9.90;;;;;;;-141.02;100.00;85611.53;5132918;28;20224;-74
2022/08/22 04:01:02;;;;;;;10.13;9.82;;;;;;;-141.02;100.00;85599.84;5133680;27;20185;-72
2022/08/22 04:04:21;;;;;;;10.38;10.07;;;;;;;-141.02;100.00;85667.91;5125037;28;20232;-73
2022/08/22 04:07:14;;;;;;;9.90;9.60;;;;;;;-141.02;100.00;85621.25;5133604;27;20245;-73
2022/08/22 04:10:23;;;;;;;9.75;9.45;;;;;;;-141.02;100.00;85597.91;5133581;27;20196;-73
2022/08/22 04:13:23;;;;;;;10.57;10.27;;;;;;;-141.02;100.00;85621.25;5136588;27;20670;-72
2022/08/22 04:16:22;;;;;;;10.60;10.30;;;;;;;-141.02;100.00;85595.97;5136672;27;20223;-73
2022/08/22 04:19:06;;;;;;;11.10;10.70;;;;;;;-141.02;100.00;85580.41;5136776;27;20275;-73
2022/08/22 04:21:54;;;;;;;11.50;11.10;;;;;;;-141.02;100.00;85559.03;5136410;27;20228;-73
2022/08/22 04:24:52;;;;;;;11.98;11.57;;;;;;;-141.02;100.00;85500.72;5136736;27;20208;-73
2022/08/22 04:27:24;;;;;;;12.40;12.00;;;;;;;-141.02;100.00;85454.06;5136920;27;20199;-72
2022/08/22 04:29:58;;;;;;;13.60;13.10;;;;;;;-141.02;100.00;85354.94;5136993;27;20216;-73
2022/08/22 04:32:35;;;;;;;15.27;14.57;;;;;;;-141.02;100.00;85362.69;5136527;27;20205;-72
2022/08/22 04:35:07;;;;;;;15.98;15.18;;;;;;;-141.02;100.00;85253.84;5136831;27;20245;-75
2022/08/22 04:37:41;;;;;;;17.35;16.45;;;;;;;-141.02;100.00;85267.44;5136783;27;20308;-74
2022/08/22 04:40:17;;;;;;;17.20;16.30;;;;;;;-141.02;100.00;85195.53;5136158;27;20218;-81
2022/08/22 04:42:50;;;;;;;15.13;14.32;;;;;;;-141.02;100.00;85176.09;5136268;27;20211;-73
2022/08/22 04:45:21;;;;;;;17.50;16.60;;;;;;;-141.02;100.00;85152.78;5136252;27;20220;-73
2022/08/22 04:47:54;;;;;;;16.90;16.10;;;;;;;-141.02;100.00;85145.00;5135921;27;20279;-74
2022/08/22 04:50:25;;;;;;;16.25;15.45;;;;;;;-141.02;100.00;85102.22;5136457;27;20189;-72
2022/08/22 04:53:25;;;;;;;16.75;15.80;;;;;;;-141.02;100.00;85075.03;5135854;27;20658;-72
2022/08/22 04:56:06;;;;;;;16.67;15.88;;;;;;;-141.02;100.00;85075.03;5120704;27;20196;-72
2022/08/22 04:58:43;;;;;;;15.98;15.27;;;;;;;-141.02;100.00;85067.25;5135760;27;20271;-75
2022/08/22 05:01:15;;;;;;;15.77;15.07;;;;;;;-141.02;100.00;85028.38;5136297;27;20188;-73
2022/08/22 05:03:49;;;;;;;15.02;14.32;;;;;;;-141.02;100.00;85008.94;5135577;27;20245;-73
2022/08/22 05:06:19;;;;;;;14.38;13.77;;;;;;;-141.02;100.00;84843.72;5135816;27;20200;-71
2022/08/22 05:08:48;;;;;;;15.00;14.30;;;;;;;-141.02;100.00;84993.38;5135525;27;20199;-72
2022/08/22 05:11:20;;;;;;;14.75;14.05;;;;;;;-141.02;100.00;85024.47;5135599;27;20670;-72
2022/08/22 05:13:52;;;;;;;14.98;14.27;;;;;;;-141.02;100.00;85020.59;5135640;27;20662;-72
